sensor_id;sensor_type;location;lat;lon;timestamp;P1;durP1;ratioP1;P2;durP2;ratioP2
19804;SDS011;10062;51.052;13.756;2022-11-09T00:00:30;18.83;;;11.27;;
19804;SDS011;10062;51.052;13.756;2022-11-09T00:03:01;23.03;;;12.50;;
19804;SDS011;10062;51.052;13.756;2022-11-09T00:05:33;20.70;;;11.07;;
19804;SDS011;10062;51.052;13.756;2022-11-09T00:08:05;21.63;;;11.43;;
19804;SDS011;10062;51.052;13.756;2022-11-09T00:10:38;20.40;;;11.00;;
19804;SDS011;10062;51.052;13.756;2022-11-09T00:13:11;21.23;;;12.53;;
19804;SDS011;10062;51.052;13.756;2022-11-09T00:15:43;21.40;;;11.33;;
19804;SDS011;10062;51.052;13.756;2022-11-09T00:18:14;18.17;;;11.43;;
19804;SDS011;10062;51.052;13.756;2022-11-09T00:20:46;21.70;;;11.27;;
19804;SDS011;10062;51.052;13.756;2022-11-09T00:23:18;20.10;;;11.27;;
19804;SDS011;10062;51.052;13.756;2022-11-09T00:25:50;19.43;;;11.60;;
19804;SDS011;10062;51.052;13.756;2022-11-09T00:28:23;18.27;;;11.83;;
19804;SDS011;10062;51.052;13.756;2022-11-09T00:30:59;21.43;;;12.47;;
19804;SDS011;10062;51.052;13.756;2022-11-09T00:33:32;18.57;;;10.53;;
19804;SDS011;10062;51.052;13.756;2022-11-09T00:36:04;21.17;;;11.87;;
19804;SDS011;10062;51.052;13.756;2022-11-09T00:38:39;17.70;;;10.27;;
19804;SDS011;10062;51.052;13.756;2022-11-09T00:41:11;19.90;;;11.70;;
19804;SDS011;10062;51.052;13.756;2022-11-09T00:43:44;21.27;;;12.27;;
19804;SDS011;10062;51.052;13.756;2022-11-09T00:46:17;23.80;;;12.17;;
19804;SDS011;10062;51.052;13.756;2022-11-09T00:48:50;20.23;;;12.10;;
19804;SDS011;10062;51.052;13.756;2022-11-09T00:51:21;16.93;;;9.23;;
19804;SDS011;10062;51.052;13.756;2022-11-09T00:53:54;20.87;;;11.67;;
19804;SDS011;10062;51.052;13.756;2022-11-09T00:56:27;20.47;;;12.20;;
19804;SDS011;10062;51.052;13.756;2022-11-09T00:59:01;22.47;;;12.57;;
19804;SDS011;10062;51.052;13.756;2022-11-09T01:01:32;22.23;;;12.53;;
19804;SDS011;10062;51.052;13.756;2022-11-09T01:04:04;22.33;;;12.00;;
19804;SDS011;10062;51.052;13.756;2022-11-09T01:06:37;22.27;;;11.33;;
19804;SDS011;10062;51.052;13.756;2022-11-09T01:09:08;19.73;;;12.30;;
19804;SDS011;10062;51.052;13.756;2022-11-09T01:11:41;25.40;;;12.67;;
19804;SDS011;10062;51.052;13.756;2022-11-09T01:14:14;23.63;;;12.97;;
19804;SDS011;10062;51.052;13.756;2022-11-09T01:16:46;20.97;;;12.20;;
19804;SDS011;10062;51.052;13.756;2022-11-09T01:19:18;21.87;;;11.93;;
19804;SDS011;10062;51.052;13.756;2022-11-09T01:21:50;21.50;;;12.93;;
19804;SDS011;10062;51.052;13.756;2022-11-09T01:24:22;29.40;;;14.53;;
19804;SDS011;10062;51.052;13.756;2022-11-09T01:26:53;21.70;;;11.90;;
19804;SDS011;10062;51.052;13.756;2022-11-09T01:29:27;22.87;;;12.43;;
19804;SDS011;10062;51.052;13.756;2022-11-09T01:31:59;22.07;;;13.07;;
19804;SDS011;10062;51.052;13.756;2022-11-09T01:34:34;21.03;;;13.20;;
19804;SDS011;10062;51.052;13.756;2022-11-09T01:37:06;17.47;;;8.87;;
19804;SDS011;10062;51.052;13.756;2022-11-09T01:39:38;23.53;;;13.47;;
19804;SDS011;10062;51.052;13.756;2022-11-09T01:42:10;23.43;;;10.30;;
19804;SDS011;10062;51.052;13.756;2022-11-09T01:44:46;21.83;;;12.77;;
19804;SDS011;10062;51.052;13.756;2022-11-09T01:47:19;22.97;;;13.60;;
19804;SDS011;10062;51.052;13.756;2022-11-09T01:49:55;22.63;;;13.30;;
19804;SDS011;10062;51.052;13.756;2022-11-09T01:52:31;20.77;;;12.20;;
19804;SDS011;10062;51.052;13.756;2022-11-09T01:55:06;23.33;;;14.07;;
19804;SDS011;10062;51.052;13.756;2022-11-09T01:57:43;20.50;;;12.90;;
19804;SDS011;10062;51.052;13.756;2022-11-09T02:00:19;21.57;;;12.60;;
19804;SDS011;10062;51.052;13.756;2022-11-09T02:02:52;22.67;;;13.23;;
19804;SDS011;10062;51.052;13.756;2022-11-09T02:05:30;21.57;;;12.80;;
19804;SDS011;10062;51.052;13.756;2022-11-09T02:08:04;22.57;;;12.57;;
19804;SDS011;10062;51.052;13.756;2022-11-09T02:10:39;25.00;;;13.33;;
19804;SDS011;10062;51.052;13.756;2022-11-09T02:13:17;23.77;;;13.10;;
19804;SDS011;10062;51.052;13.756;2022-11-09T02:15:53;22.90;;;12.67;;
19804;SDS011;10062;51.052;13.756;2022-11-09T02:18:25;25.40;;;14.10;;
19804;SDS011;10062;51.052;13.756;2022-11-09T02:20:59;23.13;;;13.60;;
19804;SDS011;10062;51.052;13.756;2022-11-09T02:23:31;23.20;;;13.23;;
19804;SDS011;10062;51.052;13.756;2022-11-09T02:26:04;22.40;;;12.93;;
19804;SDS011;10062;51.052;13.756;2022-11-09T02:28:41;22.53;;;12.77;;
19804;SDS011;10062;51.052;13.756;2022-11-09T02:31:13;24.47;;;14.10;;
19804;SDS011;10062;51.052;13.756;2022-11-09T02:33:53;25.27;;;13.77;;
19804;SDS011;10062;51.052;13.756;2022-11-09T02:36:27;22.57;;;13.67;;
19804;SDS011;10062;51.052;13.756;2022-11-09T02:38:59;20.83;;;12.00;;
19804;SDS011;10062;51.052;13.756;2022-11-09T02:41:32;16.43;;;9.47;;
19804;SDS011;10062;51.052;13.756;2022-11-09T02:44:09;24.40;;;13.17;;
19804;SDS011;10062;51.052;13.756;2022-11-09T02:46:41;23.53;;;12.40;;
19804;SDS011;10062;51.052;13.756;2022-11-09T02:49:14;21.23;;;12.90;;
19804;SDS011;10062;51.052;13.756;2022-11-09T02:51:47;23.67;;;13.53;;
19804;SDS011;10062;51.052;13.756;2022-11-09T02:54:19;26.30;;;12.97;;
19804;SDS011;10062;51.052;13.756;2022-11-09T02:56:52;20.37;;;12.80;;
19804;SDS011;10062;51.052;13.756;2022-11-09T02:59:24;27.47;;;13.90;;
19804;SDS011;10062;51.052;13.756;2022-11-09T03:01:56;25.57;;;12.93;;
19804;SDS011;10062;51.052;13.756;2022-11-09T03:04:29;26.40;;;13.17;;
19804;SDS011;10062;51.052;13.756;2022-11-09T03:07:02;20.67;;;13.67;;
19804;SDS011;10062;51.052;13.756;2022-11-09T03:09:34;25.93;;;13.20;;
19804;SDS011;10062;51.052;13.756;2022-11-09T03:12:06;20.73;;;10.13;;
19804;SDS011;10062;51.052;13.756;2022-11-09T03:14:53;19.90;;;12.77;;
19804;SDS011;10062;51.052;13.756;2022-11-09T03:17:25;23.10;;;13.77;;
19804;SDS011;10062;51.052;13.756;2022-11-09T03:19:57;21.53;;;12.17;;
19804;SDS011;10062;51.052;13.756;2022-11-09T03:22:31;20.63;;;13.17;;
19804;SDS011;10062;51.052;13.756;2022-11-09T03:25:05;16.93;;;9.00;;
19804;SDS011;10062;51.052;13.756;2022-11-09T03:27:37;24.13;;;13.10;;
19804;SDS011;10062;51.052;13.756;2022-11-09T03:30:09;24.30;;;12.73;;
19804;SDS011;10062;51.052;13.756;2022-11-09T03:32:42;26.83;;;12.97;;
19804;SDS011;10062;51.052;13.756;2022-11-09T03:35:14;25.03;;;12.83;;
19804;SDS011;10062;51.052;13.756;2022-11-09T03:37:48;25.37;;;13.27;;
19804;SDS011;10062;51.052;13.756;2022-11-09T03:40:19;25.53;;;13.67;;
19804;SDS011;10062;51.052;13.756;2022-11-09T03:42:54;29.23;;;12.80;;
19804;SDS011;10062;51.052;13.756;2022-11-09T03:45:26;22.07;;;12.80;;
19804;SDS011;10062;51.052;13.756;2022-11-09T03:47:58;24.50;;;13.43;;
19804;SDS011;10062;51.052;13.756;2022-11-09T03:50:31;26.00;;;13.23;;
19804;SDS011;10062;51.052;13.756;2022-11-09T03:53:05;23.90;;;12.83;;
19804;SDS011;10062;51.052;13.756;2022-11-09T03:55:38;27.23;;;17.20;;
19804;SDS011;10062;51.052;13.756;2022-11-09T03:58:10;22.70;;;12.57;;
19804;SDS011;10062;51.052;13.756;2022-11-09T04:00:43;26.23;;;14.17;;
19804;SDS011;10062;51.052;13.756;2022-11-09T04:03:14;25.17;;;13.53;;
19804;SDS011;10062;51.052;13.756;2022-11-09T04:05:46;26.23;;;11.70;;
19804;SDS011;10062;51.052;13.756;2022-11-09T04:08:19;27.50;;;13.73;;
19804;SDS011;10062;51.052;13.756;2022-11-09T04:10:51;23.53;;;13.13;;
19804;SDS011;10062;51.052;13.756;2022-11-09T04:13:23;20.00;;;11.53;;
19804;SDS011;10062;51.052;13.756;2022-11-09T04:15:54;24.63;;;12.03;;
19804;SDS011;10062;51.052;13.756;2022-11-09T04:18:26;15.60;;;9.43;;
19804;SDS011;10062;51.052;13.756;2022-11-09T04:20:58;22.13;;;12.47;;
19804;SDS011;10062;51.052;13.756;2022-11-09T04:23:32;20.83;;;12.57;;
19804;SDS011;10062;51.052;13.756;2022-11-09T04:26:03;21.73;;;12.07;;
19804;SDS011;10062;51.052;13.756;2022-11-09T04:28:35;20.83;;;12.47;;
19804;SDS011;10062;51.052;13.756;2022-11-09T04:31:07;24.33;;;13.43;;
19804;SDS011;10062;51.052;13.756;2022-11-09T04:33:39;23.73;;;12.90;;
19804;SDS011;10062;51.052;13.756;2022-11-09T04:36:11;24.00;;;13.47;;
19804;SDS011;10062;51.052;13.756;2022-11-09T04:38:44;16.37;;;10.00;;
19804;SDS011;10062;51.052;13.756;2022-11-09T04:41:16;33.07;;;12.33;;
19804;SDS011;10062;51.052;13.756;2022-11-09T04:43:48;21.60;;;13.00;;
19804;SDS011;10062;51.052;13.756;2022-11-09T04:46:20;22.97;;;14.27;;
19804;SDS011;10062;51.052;13.756;2022-11-09T04:48:52;21.40;;;12.30;;
19804;SDS011;10062;51.052;13.756;2022-11-09T04:51:23;23.33;;;12.30;;
19804;SDS011;10062;51.052;13.756;2022-11-09T04:53:57;18.03;;;10.63;;
19804;SDS011;10062;51.052;13.756;2022-11-09T04:56:29;24.17;;;12.00;;
19804;SDS011;10062;51.052;13.756;2022-11-09T04:59:01;23.30;;;13.30;;
19804;SDS011;10062;51.052;13.756;2022-11-09T05:01:32;22.73;;;12.23;;
19804;SDS011;10062;51.052;13.756;2022-11-09T05:04:04;22.90;;;12.13;;
19804;SDS011;10062;51.052;13.756;2022-11-09T05:06:36;24.30;;;12.93;;
19804;SDS011;10062;51.052;13.756;2022-11-09T05:09:09;20.60;;;12.17;;
19804;SDS011;10062;51.052;13.756;2022-11-09T05:11:41;21.73;;;12.53;;
19804;SDS011;10062;51.052;13.756;2022-11-09T05:14:12;17.90;;;9.77;;
19804;SDS011;10062;51.052;13.756;2022-11-09T05:16:44;33.67;;;19.13;;
19804;SDS011;10062;51.052;13.756;2022-11-09T05:19:16;21.10;;;12.33;;
19804;SDS011;10062;51.052;13.756;2022-11-09T05:21:48;21.43;;;11.80;;
19804;SDS011;10062;51.052;13.756;2022-11-09T05:24:21;22.77;;;12.43;;
19804;SDS011;10062;51.052;13.756;2022-11-09T05:26:52;26.40;;;12.70;;
19804;SDS011;10062;51.052;13.756;2022-11-09T05:29:24;19.80;;;12.10;;
19804;SDS011;10062;51.052;13.756;2022-11-09T05:31:56;19.90;;;12.30;;
19804;SDS011;10062;51.052;13.756;2022-11-09T05:34:28;24.83;;;12.67;;
19804;SDS011;10062;51.052;13.756;2022-11-09T05:37:00;21.77;;;12.50;;
19804;SDS011;10062;51.052;13.756;2022-11-09T05:39:33;23.40;;;11.67;;
19804;SDS011;10062;51.052;13.756;2022-11-09T05:42:05;22.53;;;11.30;;
19804;SDS011;10062;51.052;13.756;2022-11-09T05:44:39;19.30;;;11.13;;
19804;SDS011;10062;51.052;13.756;2022-11-09T05:47:11;19.03;;;11.10;;
19804;SDS011;10062;51.052;13.756;2022-11-09T05:49:42;24.20;;;13.57;;
19804;SDS011;10062;51.052;13.756;2022-11-09T05:52:14;21.67;;;11.13;;
19804;SDS011;10062;51.052;13.756;2022-11-09T05:54:47;23.10;;;12.47;;
19804;SDS011;10062;51.052;13.756;2022-11-09T05:57:19;22.27;;;11.63;;
19804;SDS011;10062;51.052;13.756;2022-11-09T05:59:51;22.70;;;11.47;;
19804;SDS011;10062;51.052;13.756;2022-11-09T06:02:23;22.83;;;12.20;;
19804;SDS011;10062;51.052;13.756;2022-11-09T06:04:55;22.57;;;11.77;;
19804;SDS011;10062;51.052;13.756;2022-11-09T06:07:27;22.70;;;12.03;;
19804;SDS011;10062;51.052;13.756;2022-11-09T06:10:00;19.03;;;12.07;;
19804;SDS011;10062;51.052;13.756;2022-11-09T06:12:32;21.67;;;12.83;;
19804;SDS011;10062;51.052;13.756;2022-11-09T06:15:04;22.43;;;12.27;;
19804;SDS011;10062;51.052;13.756;2022-11-09T06:17:36;23.70;;;11.97;;
19804;SDS011;10062;51.052;13.756;2022-11-09T06:20:08;22.17;;;12.77;;
19804;SDS011;10062;51.052;13.756;2022-11-09T06:22:40;21.37;;;11.90;;
19804;SDS011;10062;51.052;13.756;2022-11-09T06:25:13;19.33;;;12.23;;
19804;SDS011;10062;51.052;13.756;2022-11-09T06:27:45;25.30;;;12.47;;
19804;SDS011;10062;51.052;13.756;2022-11-09T06:30:17;21.50;;;11.87;;
19804;SDS011;10062;51.052;13.756;2022-11-09T06:32:49;20.40;;;11.23;;
19804;SDS011;10062;51.052;13.756;2022-11-09T06:35:21;19.17;;;11.67;;
19804;SDS011;10062;51.052;13.756;2022-11-09T06:37:54;19.77;;;11.00;;
19804;SDS011;10062;51.052;13.756;2022-11-09T06:40:28;18.60;;;11.23;;
19804;SDS011;10062;51.052;13.756;2022-11-09T06:43:00;22.23;;;11.50;;
19804;SDS011;10062;51.052;13.756;2022-11-09T06:45:33;22.27;;;11.47;;
19804;SDS011;10062;51.052;13.756;2022-11-09T06:48:05;22.63;;;13.67;;
19804;SDS011;10062;51.052;13.756;2022-11-09T06:50:37;20.60;;;11.43;;
19804;SDS011;10062;51.052;13.756;2022-11-09T06:53:09;19.40;;;10.80;;
19804;SDS011;10062;51.052;13.756;2022-11-09T06:55:43;19.53;;;10.93;;
19804;SDS011;10062;51.052;13.756;2022-11-09T06:58:15;21.07;;;12.00;;
19804;SDS011;10062;51.052;13.756;2022-11-09T07:00:48;20.20;;;11.13;;
19804;SDS011;10062;51.052;13.756;2022-11-09T07:03:20;20.43;;;10.97;;
19804;SDS011;10062;51.052;13.756;2022-11-09T07:05:53;21.77;;;13.03;;
19804;SDS011;10062;51.052;13.756;2022-11-09T07:08:24;21.37;;;11.67;;
19804;SDS011;10062;51.052;13.756;2022-11-09T07:11:02;20.87;;;11.40;;
19804;SDS011;10062;51.052;13.756;2022-11-09T07:13:34;20.90;;;11.50;;
19804;SDS011;10062;51.052;13.756;2022-11-09T07:16:06;18.63;;;10.90;;
19804;SDS011;10062;51.052;13.756;2022-11-09T07:18:41;18.80;;;10.13;;
19804;SDS011;10062;51.052;13.756;2022-11-09T07:21:13;20.17;;;11.30;;
19804;SDS011;10062;51.052;13.756;2022-11-09T07:23:45;22.13;;;12.30;;
19804;SDS011;10062;51.052;13.756;2022-11-09T07:26:19;17.80;;;11.00;;
19804;SDS011;10062;51.052;13.756;2022-11-09T07:28:51;18.87;;;10.60;;
19804;SDS011;10062;51.052;13.756;2022-11-09T07:31:23;15.47;;;10.40;;
19804;SDS011;10062;51.052;13.756;2022-11-09T07:33:58;19.93;;;11.60;;
19804;SDS011;10062;51.052;13.756;2022-11-09T07:36:33;21.93;;;11.43;;
19804;SDS011;10062;51.052;13.756;2022-11-09T07:39:06;25.30;;;11.83;;
19804;SDS011;10062;51.052;13.756;2022-11-09T07:41:39;16.77;;;10.10;;
19804;SDS011;10062;51.052;13.756;2022-11-09T07:44:10;16.50;;;10.50;;
19804;SDS011;10062;51.052;13.756;2022-11-09T07:46:45;22.10;;;13.93;;
19804;SDS011;10062;51.052;13.756;2022-11-09T07:49:17;19.23;;;10.77;;
19804;SDS011;10062;51.052;13.756;2022-11-09T07:51:49;19.90;;;11.67;;
19804;SDS011;10062;51.052;13.756;2022-11-09T07:54:21;20.00;;;12.10;;
19804;SDS011;10062;51.052;13.756;2022-11-09T07:56:56;23.30;;;11.90;;
19804;SDS011;10062;51.052;13.756;2022-11-09T07:59:27;20.20;;;10.90;;
19804;SDS011;10062;51.052;13.756;2022-11-09T08:02:00;20.10;;;11.27;;
19804;SDS011;10062;51.052;13.756;2022-11-09T08:04:32;21.30;;;12.33;;
19804;SDS011;10062;51.052;13.756;2022-11-09T08:07:04;23.27;;;11.53;;
19804;SDS011;10062;51.052;13.756;2022-11-09T08:09:35;20.90;;;11.80;;
19804;SDS011;10062;51.052;13.756;2022-11-09T08:12:09;23.10;;;12.37;;
19804;SDS011;10062;51.052;13.756;2022-11-09T08:14:40;21.83;;;13.00;;
19804;SDS011;10062;51.052;13.756;2022-11-09T08:17:12;20.83;;;12.83;;
19804;SDS011;10062;51.052;13.756;2022-11-09T08:19:44;19.83;;;12.07;;
19804;SDS011;10062;51.052;13.756;2022-11-09T08:22:16;18.30;;;11.70;;
19804;SDS011;10062;51.052;13.756;2022-11-09T08:24:47;20.83;;;12.13;;
19804;SDS011;10062;51.052;13.756;2022-11-09T08:27:20;20.67;;;12.90;;
19804;SDS011;10062;51.052;13.756;2022-11-09T08:29:52;20.30;;;12.63;;
19804;SDS011;10062;51.052;13.756;2022-11-09T08:32:24;17.73;;;10.93;;
19804;SDS011;10062;51.052;13.756;2022-11-09T08:34:56;21.17;;;11.93;;
19804;SDS011;10062;51.052;13.756;2022-11-09T08:37:28;18.43;;;10.47;;
19804;SDS011;10062;51.052;13.756;2022-11-09T08:40:00;22.63;;;12.07;;
19804;SDS011;10062;51.052;13.756;2022-11-09T08:42:33;18.33;;;10.67;;
19804;SDS011;10062;51.052;13.756;2022-11-09T08:45:05;23.80;;;12.07;;
19804;SDS011;10062;51.052;13.756;2022-11-09T08:47:37;21.20;;;10.73;;
19804;SDS011;10062;51.052;13.756;2022-11-09T08:50:10;17.70;;;11.10;;
19804;SDS011;10062;51.052;13.756;2022-11-09T08:52:43;20.17;;;11.63;;
19804;SDS011;10062;51.052;13.756;2022-11-09T08:55:15;21.70;;;12.03;;
19804;SDS011;10062;51.052;13.756;2022-11-09T08:57:48;19.07;;;11.53;;
19804;SDS011;10062;51.052;13.756;2022-11-09T09:00:23;22.07;;;11.77;;
19804;SDS011;10062;51.052;13.756;2022-11-09T09:02:55;25.30;;;11.70;;
19804;SDS011;10062;51.052;13.756;2022-11-09T09:05:27;18.57;;;11.87;;
19804;SDS011;10062;51.052;13.756;2022-11-09T09:07:58;17.63;;;11.13;;
19804;SDS011;10062;51.052;13.756;2022-11-09T09:10:31;17.27;;;11.07;;
19804;SDS011;10062;51.052;13.756;2022-11-09T09:13:06;17.07;;;11.23;;
19804;SDS011;10062;51.052;13.756;2022-11-09T09:15:38;21.27;;;11.60;;
19804;SDS011;10062;51.052;13.756;2022-11-09T09:18:10;18.33;;;11.60;;
19804;SDS011;10062;51.052;13.756;2022-11-09T09:20:41;18.50;;;11.80;;
19804;SDS011;10062;51.052;13.756;2022-11-09T09:23:13;20.27;;;11.23;;
19804;SDS011;10062;51.052;13.756;2022-11-09T09:25:46;20.43;;;12.40;;
19804;SDS011;10062;51.052;13.756;2022-11-09T09:28:19;20.33;;;12.27;;
19804;SDS011;10062;51.052;13.756;2022-11-09T09:30:51;19.60;;;11.63;;
19804;SDS011;10062;51.052;13.756;2022-11-09T09:33:23;17.67;;;10.57;;
19804;SDS011;10062;51.052;13.756;2022-11-09T09:35:55;22.43;;;12.40;;
19804;SDS011;10062;51.052;13.756;2022-11-09T09:38:27;17.93;;;11.07;;
19804;SDS011;10062;51.052;13.756;2022-11-09T09:41:01;16.80;;;10.27;;
19804;SDS011;10062;51.052;13.756;2022-11-09T09:43:36;16.27;;;9.40;;
19804;SDS011;10062;51.052;13.756;2022-11-09T09:46:12;14.53;;;9.73;;
19804;SDS011;10062;51.052;13.756;2022-11-09T09:48:50;17.93;;;10.03;;
19804;SDS011;10062;51.052;13.756;2022-11-09T09:51:26;14.30;;;8.37;;
19804;SDS011;10062;51.052;13.756;2022-11-09T09:54:06;18.53;;;10.07;;
19804;SDS011;10062;51.052;13.756;2022-11-09T09:56:47;18.43;;;9.77;;
19804;SDS011;10062;51.052;13.756;2022-11-09T09:59:22;15.20;;;8.70;;
19804;SDS011;10062;51.052;13.756;2022-11-09T10:02:02;16.73;;;9.57;;
19804;SDS011;10062;51.052;13.756;2022-11-09T10:04:40;12.53;;;6.87;;
19804;SDS011;10062;51.052;13.756;2022-11-09T10:07:13;16.33;;;9.23;;
19804;SDS011;10062;51.052;13.756;2022-11-09T10:09:57;17.00;;;9.50;;
19804;SDS011;10062;51.052;13.756;2022-11-09T10:12:41;15.50;;;9.43;;
19804;SDS011;10062;51.052;13.756;2022-11-09T10:15:30;12.37;;;7.73;;
19804;SDS011;10062;51.052;13.756;2022-11-09T10:18:13;15.07;;;7.93;;
19804;SDS011;10062;51.052;13.756;2022-11-09T10:21:01;14.57;;;8.43;;
19804;SDS011;10062;51.052;13.756;2022-11-09T10:23:49;16.00;;;9.57;;
19804;SDS011;10062;51.052;13.756;2022-11-09T10:26:37;11.40;;;6.00;;
19804;SDS011;10062;51.052;13.756;2022-11-09T10:29:15;12.43;;;7.70;;
19804;SDS011;10062;51.052;13.756;2022-11-09T10:31:53;13.70;;;7.23;;
19804;SDS011;10062;51.052;13.756;2022-11-09T10:34:28;13.93;;;8.70;;
19804;SDS011;10062;51.052;13.756;2022-11-09T10:37:04;12.90;;;8.07;;
19804;SDS011;10062;51.052;13.756;2022-11-09T10:39:45;13.80;;;8.13;;
19804;SDS011;10062;51.052;13.756;2022-11-09T10:42:38;13.43;;;7.90;;
19804;SDS011;10062;51.052;13.756;2022-11-09T10:45:33;14.67;;;8.70;;
19804;SDS011;10062;51.052;13.756;2022-11-09T10:48:30;15.77;;;9.10;;
19804;SDS011;10062;51.052;13.756;2022-11-09T10:51:30;14.60;;;9.10;;
19804;SDS011;10062;51.052;13.756;2022-11-09T10:54:24;14.03;;;8.93;;
19804;SDS011;10062;51.052;13.756;2022-11-09T10:57:18;14.80;;;8.40;;
19804;SDS011;10062;51.052;13.756;2022-11-09T11:00:12;14.43;;;8.93;;
19804;SDS011;10062;51.052;13.756;2022-11-09T11:03:09;13.17;;;8.70;;
19804;SDS011;10062;51.052;13.756;2022-11-09T11:06:06;14.87;;;9.70;;
19804;SDS011;10062;51.052;13.756;2022-11-09T11:09:12;17.73;;;11.23;;
19804;SDS011;10062;51.052;13.756;2022-11-09T11:12:11;17.07;;;8.00;;
19804;SDS011;10062;51.052;13.756;2022-11-09T11:15:05;14.30;;;9.00;;
19804;SDS011;10062;51.052;13.756;2022-11-09T11:18:12;14.23;;;9.30;;
19804;SDS011;10062;51.052;13.756;2022-11-09T11:21:10;16.27;;;9.00;;
19804;SDS011;10062;51.052;13.756;2022-11-09T11:24:14;20.63;;;10.07;;
19804;SDS011;10062;51.052;13.756;2022-11-09T11:27:07;15.67;;;8.67;;
19804;SDS011;10062;51.052;13.756;2022-11-09T11:30:04;20.47;;;10.20;;
19804;SDS011;10062;51.052;13.756;2022-11-09T11:32:59;24.20;;;9.60;;
19804;SDS011;10062;51.052;13.756;2022-11-09T11:35:52;13.90;;;8.77;;
19804;SDS011;10062;51.052;13.756;2022-11-09T11:38:52;15.87;;;9.03;;
19804;SDS011;10062;51.052;13.756;2022-11-09T11:41:56;18.17;;;9.70;;
19804;SDS011;10062;51.052;13.756;2022-11-09T11:45:05;15.57;;;9.77;;
19804;SDS011;10062;51.052;13.756;2022-11-09T11:48:12;14.47;;;8.90;;
19804;SDS011;10062;51.052;13.756;2022-11-09T11:51:16;15.60;;;8.37;;
19804;SDS011;10062;51.052;13.756;2022-11-09T11:54:12;14.73;;;8.53;;
19804;SDS011;10062;51.052;13.756;2022-11-09T11:57:10;14.10;;;8.40;;
19804;SDS011;10062;51.052;13.756;2022-11-09T12:00:12;13.90;;;8.93;;
19804;SDS011;10062;51.052;13.756;2022-11-09T12:06:39;15.13;;;8.20;;
19804;SDS011;10062;51.052;13.756;2022-11-09T12:09:50;12.27;;;7.33;;
19804;SDS011;10062;51.052;13.756;2022-11-09T12:13:02;13.70;;;8.73;;
19804;SDS011;10062;51.052;13.756;2022-11-09T12:16:08;14.57;;;8.37;;
19804;SDS011;10062;51.052;13.756;2022-11-09T12:19:11;13.73;;;8.27;;
19804;SDS011;10062;51.052;13.756;2022-11-09T12:22:12;14.00;;;8.77;;
19804;SDS011;10062;51.052;13.756;2022-11-09T12:25:10;12.60;;;8.27;;
19804;SDS011;10062;51.052;13.756;2022-11-09T12:28:09;15.50;;;8.07;;
19804;SDS011;10062;51.052;13.756;2022-11-09T12:31:12;11.57;;;6.70;;
19804;SDS011;10062;51.052;13.756;2022-11-09T12:34:14;16.03;;;10.20;;
19804;SDS011;10062;51.052;13.756;2022-11-09T12:37:11;13.00;;;9.23;;
19804;SDS011;10062;51.052;13.756;2022-11-09T12:40:05;12.43;;;8.07;;
19804;SDS011;10062;51.052;13.756;2022-11-09T12:43:12;14.10;;;9.03;;
19804;SDS011;10062;51.052;13.756;2022-11-09T12:46:05;13.03;;;8.00;;
19804;SDS011;10062;51.052;13.756;2022-11-09T12:48:59;11.30;;;8.20;;
19804;SDS011;10062;51.052;13.756;2022-11-09T12:51:52;17.70;;;10.90;;
19804;SDS011;10062;51.052;13.756;2022-11-09T12:54:44;16.23;;;10.73;;
19804;SDS011;10062;51.052;13.756;2022-11-09T12:57:38;15.63;;;9.90;;
19804;SDS011;10062;51.052;13.756;2022-11-09T13:00:45;14.17;;;9.50;;
19804;SDS011;10062;51.052;13.756;2022-11-09T13:03:37;15.60;;;9.97;;
19804;SDS011;10062;51.052;13.756;2022-11-09T13:06:39;16.87;;;9.90;;
19804;SDS011;10062;51.052;13.756;2022-11-09T13:09:30;17.30;;;10.67;;
19804;SDS011;10062;51.052;13.756;2022-11-09T13:12:32;13.10;;;9.30;;
19804;SDS011;10062;51.052;13.756;2022-11-09T13:15:28;14.70;;;10.83;;
19804;SDS011;10062;51.052;13.756;2022-11-09T13:18:23;14.50;;;9.07;;
19804;SDS011;10062;51.052;13.756;2022-11-09T13:21:35;16.00;;;9.70;;
19804;SDS011;10062;51.052;13.756;2022-11-09T13:27:47;17.93;;;10.37;;
19804;SDS011;10062;51.052;13.756;2022-11-09T13:30:40;17.37;;;10.60;;
19804;SDS011;10062;51.052;13.756;2022-11-09T13:33:31;16.53;;;10.53;;
19804;SDS011;10062;51.052;13.756;2022-11-09T13:36:23;17.20;;;10.97;;
19804;SDS011;10062;51.052;13.756;2022-11-09T13:39:29;16.57;;;11.90;;
19804;SDS011;10062;51.052;13.756;2022-11-09T13:42:23;15.20;;;10.87;;
19804;SDS011;10062;51.052;13.756;2022-11-09T13:45:25;21.43;;;11.10;;
19804;SDS011;10062;51.052;13.756;2022-11-09T13:51:40;16.13;;;10.57;;
19804;SDS011;10062;51.052;13.756;2022-11-09T13:54:35;19.70;;;10.47;;
19804;SDS011;10062;51.052;13.756;2022-11-09T13:57:25;15.83;;;11.17;;
19804;SDS011;10062;51.052;13.756;2022-11-09T14:00:17;18.70;;;12.30;;
19804;SDS011;10062;51.052;13.756;2022-11-09T14:03:18;16.93;;;12.13;;
19804;SDS011;10062;51.052;13.756;2022-11-09T14:06:12;15.63;;;10.27;;
19804;SDS011;10062;51.052;13.756;2022-11-09T14:09:02;24.17;;;12.30;;
19804;SDS011;10062;51.052;13.756;2022-11-09T14:11:57;16.63;;;10.90;;
19804;SDS011;10062;51.052;13.756;2022-11-09T14:15:05;17.23;;;11.43;;
19804;SDS011;10062;51.052;13.756;2022-11-09T14:18:17;19.73;;;11.67;;
19804;SDS011;10062;51.052;13.756;2022-11-09T14:21:30;19.80;;;13.03;;
19804;SDS011;10062;51.052;13.756;2022-11-09T14:24:26;17.63;;;10.53;;
19804;SDS011;10062;51.052;13.756;2022-11-09T14:27:20;21.53;;;12.67;;
19804;SDS011;10062;51.052;13.756;2022-11-09T14:30:13;19.97;;;12.17;;
19804;SDS011;10062;51.052;13.756;2022-11-09T14:33:14;17.70;;;11.43;;
19804;SDS011;10062;51.052;13.756;2022-11-09T14:36:10;21.93;;;13.60;;
19804;SDS011;10062;51.052;13.756;2022-11-09T14:39:04;21.93;;;13.60;;
19804;SDS011;10062;51.052;13.756;2022-11-09T14:42:05;21.47;;;12.77;;
19804;SDS011;10062;51.052;13.756;2022-11-09T14:44:57;29.87;;;18.00;;
19804;SDS011;10062;51.052;13.756;2022-11-09T14:47:48;23.90;;;13.17;;
19804;SDS011;10062;51.052;13.756;2022-11-09T14:50:41;22.27;;;14.13;;
19804;SDS011;10062;51.052;13.756;2022-11-09T14:53:32;25.50;;;16.17;;
19804;SDS011;10062;51.052;13.756;2022-11-09T14:56:26;21.73;;;14.13;;
19804;SDS011;10062;51.052;13.756;2022-11-09T14:59:20;21.00;;;12.53;;
19804;SDS011;10062;51.052;13.756;2022-11-09T15:02:15;23.30;;;15.07;;
19804;SDS011;10062;51.052;13.756;2022-11-09T15:08:19;27.97;;;16.20;;
19804;SDS011;10062;51.052;13.756;2022-11-09T15:11:11;24.90;;;15.77;;
19804;SDS011;10062;51.052;13.756;2022-11-09T15:14:10;23.60;;;13.63;;
19804;SDS011;10062;51.052;13.756;2022-11-09T15:17:05;23.40;;;13.13;;
19804;SDS011;10062;51.052;13.756;2022-11-09T15:20:02;27.70;;;15.10;;
19804;SDS011;10062;51.052;13.756;2022-11-09T15:26:27;26.00;;;13.90;;
19804;SDS011;10062;51.052;13.756;2022-11-09T15:29:36;26.23;;;15.80;;
19804;SDS011;10062;51.052;13.756;2022-11-09T15:32:31;25.37;;;14.60;;
19804;SDS011;10062;51.052;13.756;2022-11-09T15:35:24;24.63;;;15.90;;
19804;SDS011;10062;51.052;13.756;2022-11-09T15:38:27;26.87;;;15.33;;
19804;SDS011;10062;51.052;13.756;2022-11-09T15:41:19;25.07;;;15.23;;